Time;durP1;ratioP1;P1;durP2;ratioP2;P2;SDS_P1;SDS_P2;PMS_P1;PMS_P2;Temp;Humidity;BMP_temperature;BMP_pressure;BME280_temperature;BME280_humidity;BME280_pressure;Samples;Min_cycle;Max_cycle;Signal;HPM_P1;HPM_P2
2024/01/31 00:02:15;;;;;;;8.05;1.33;;;7.60;83.10;;;;;;9182289;19;20496;-72
2024/01/31 00:05:20;;;;;;;4.25;1.10;;;7.60;83.10;;;;;;9181371;19;20014;-72
2024/01/31 00:08:28;;;;;;;3.80;1.20;;;7.60;83.20;;;;;;9179294;19;20022;-74
2024/01/31 00:11:36;;;;;;;6.60;1.48;;;7.60;83.10;;;;;;9182294;19;20010;-71
2024/01/31 00:14:45;;;;;;;6.45;1.70;;;7.60;83.20;;;;;;9180408;19;20499;-73
2024/01/31 00:17:54;;;;;;;3.22;0.90;;;7.50;83.10;;;;;;9180827;19;20044;-72
2024/01/31 00:21:02;;;;;;;4.30;1.05;;;7.50;83.10;;;;;;9180015;19;20761;-73
2024/01/31 00:24:09;;;;;;;5.10;1.20;;;7.50;83.10;;;;;;9182251;19;20028;-72
2024/01/31 00:27:17;;;;;;;7.20;0.88;;;7.50;83.10;;;;;;9181313;19;20023;-72
2024/01/31 00:30:22;;;;;;;5.38;1.17;;;7.50;83.30;;;;;;9178724;19;20025;-73
2024/01/31 00:33:33;;;;;;;3.10;0.80;;;7.50;83.10;;;;;;9176379;19;20378;-72
2024/01/31 00:36:38;;;;;;;4.35;1.10;;;7.40;83.00;;;;;;9178755;19;20055;-72
2024/01/31 00:39:49;;;;;;;6.00;1.17;;;7.40;83.10;;;;;;9176331;19;20390;-72
2024/01/31 00:42:55;;;;;;;5.60;0.75;;;7.30;83.00;;;;;;9178525;19;20361;-73
2024/01/31 00:46:05;;;;;;;2.10;1.00;;;7.30;83.10;;;;;;9180995;19;20021;-71
2024/01/31 00:49:14;;;;;;;6.38;1.42;;;7.30;83.10;;;;;;9179909;19;20021;-72
2024/01/31 00:52:25;;;;;;;3.80;1.00;;;7.30;83.20;;;;;;9178118;19;20015;-72
2024/01/31 00:55:30;;;;;;;5.18;1.10;;;7.20;83.10;;;;;;9179851;19;20014;-72
2024/01/31 00:58:38;;;;;;;5.95;1.83;;;7.20;83.10;;;;;;9179347;19;20026;-71
2024/01/31 01:01:44;;;;;;;6.55;1.38;;;7.30;83.20;;;;;;9179275;19;20350;-72
2024/01/31 01:05:14;;;;;;;7.50;1.35;;;7.20;83.20;;;;;;9179951;19;20056;-71
2024/01/31 01:08:19;;;;;;;8.57;1.33;;;7.20;83.10;;;;;;9178079;19;20014;-72
2024/01/31 01:11:27;;;;;;;1.90;1.00;;;7.20;83.10;;;;;;9178493;19;20025;-71
2024/01/31 01:14:35;;;;;;;7.72;1.60;;;7.20;83.20;;;;;;9179592;19;20019;-72
2024/01/31 01:17:42;;;;;;;4.05;1.45;;;7.10;83.20;;;;;;9178885;19;20013;-71
2024/01/31 01:20:50;;;;;;;4.38;1.30;;;7.10;83.20;;;;;;9176851;19;20010;-71
2024/01/31 01:23:58;;;;;;;3.90;1.48;;;7.10;83.10;;;;;;9177623;19;20014;-71
2024/01/31 01:27:05;;;;;;;6.35;1.67;;;7.10;83.10;;;;;;9176370;19;20074;-71
2024/01/31 01:30:14;;;;;;;6.10;1.73;;;7.10;83.20;;;;;;9178522;19;20026;-72
2024/01/31 01:33:19;;;;;;;4.25;1.50;;;7.10;83.20;;;;;;9171802;19;20099;-71
2024/01/31 01:36:30;;;;;;;6.07;1.58;;;7.10;83.30;;;;;;9178603;19;20364;-72
2024/01/31 01:39:37;;;;;;;5.43;1.40;;;7.00;83.20;;;;;;9176954;19;20010;-71
2024/01/31 01:42:45;;;;;;;6.95;1.40;;;7.00;83.30;;;;;;9178120;19;20154;-73
2024/01/31 01:45:51;;;;;;;7.32;1.40;;;7.00;83.30;;;;;;9178205;19;20010;-70
2024/01/31 01:49:00;;;;;;;3.50;1.67;;;7.00;83.30;;;;;;9176480;19;20750;-70
2024/01/31 01:52:12;;;;;;;6.25;1.52;;;7.00;83.30;;;;;;9174411;19;20015;-71
2024/01/31 01:55:20;;;;;;;5.63;1.40;;;7.00;83.30;;;;;;9175756;19;20090;-73
2024/01/31 01:58:27;;;;;;;6.25;1.83;;;7.10;83.30;;;;;;9178589;19;20048;-73
2024/01/31 02:01:35;;;;;;;5.57;1.55;;;7.00;83.40;;;;;;9177416;19;20476;-73
2024/01/31 02:04:41;;;;;;;6.53;2.40;;;7.00;83.50;;;;;;9177059;19;20014;-71
2024/01/31 02:07:51;;;;;;;9.07;1.83;;;6.90;83.30;;;;;;9176704;19;20015;-71
2024/01/31 02:10:57;;;;;;;6.45;1.52;;;7.10;83.60;;;;;;9175981;19;20010;-74
2024/01/31 02:14:13;;;;;;;3.05;1.23;;;7.00;83.40;;;;;;9176018;19;20025;-73
2024/01/31 02:17:19;;;;;;;4.63;1.45;;;7.00;83.60;;;;;;9177427;19;20638;-73
2024/01/31 02:20:27;;;;;;;1.85;1.15;;;6.90;83.50;;;;;;9174535;19;20029;-71
2024/01/31 02:23:35;;;;;;;3.83;0.90;;;6.90;83.50;;;;;;9173396;19;20022;-73
2024/01/31 02:26:43;;;;;;;2.50;1.00;;;6.90;83.60;;;;;;9175880;19;20057;-73
2024/01/31 02:29:48;;;;;;;3.88;1.05;;;6.90;84.20;;;;;;9177249;19;20007;-74
2024/01/31 02:32:56;;;;;;;6.05;1.23;;;6.90;83.60;;;;;;9171513;19;20141;-72
2024/01/31 02:36:02;;;;;;;4.10;1.05;;;6.90;83.60;;;;;;9174966;19;20014;-71
2024/01/31 02:39:12;;;;;;;2.65;1.10;;;7.00;83.80;;;;;;9175278;19;20015;-72
2024/01/31 02:42:18;;;;;;;2.60;1.20;;;7.00;83.80;;;;;;9173339;19;20018;-70
2024/01/31 02:45:27;;;;;;;3.03;1.40;;;6.90;83.70;;;;;;9175397;19;20021;-72
2024/01/31 02:48:33;;;;;;;4.25;1.15;;;7.00;83.70;;;;;;9176926;19;20010;-71
2024/01/31 02:51:40;;;;;;;5.75;1.42;;;6.90;83.80;;;;;;9175941;19;20522;-72
2024/01/31 02:54:51;;;;;;;3.33;1.50;;;6.90;84.00;;;;;;9175539;19;20468;-72
2024/01/31 02:57:58;;;;;;;6.82;2.85;;;6.90;83.80;;;;;;9176068;19;20002;-71
2024/01/31 03:01:08;;;;;;;6.55;1.52;;;7.00;83.80;;;;;;9174643;19;20039;-73
2024/01/31 03:04:15;;;;;;;3.15;1.23;;;7.00;83.70;;;;;;9175168;19;20033;-71
2024/01/31 03:07:21;;;;;;;8.35;1.58;;;6.90;83.60;;;;;;9171780;19;20025;-72
2024/01/31 03:10:32;;;;;;;3.65;1.40;;;7.00;83.70;;;;;;9174001;19;20504;-73
2024/01/31 03:13:38;;;;;;;3.45;1.40;;;6.90;83.80;;;;;;9175594;19;20480;-72
2024/01/31 03:16:45;;;;;;;3.03;1.20;;;6.90;83.60;;;;;;9175074;19;20018;-72
2024/01/31 03:19:51;;;;;;;3.53;1.85;;;6.90;83.70;;;;;;9173914;19;20107;-72
2024/01/31 03:22:59;;;;;;;7.35;1.48;;;6.90;83.70;;;;;;9173980;19;20015;-72
2024/01/31 03:26:07;;;;;;;2.90;1.33;;;6.90;83.80;;;;;;9175817;19;20022;-72
2024/01/31 03:29:15;;;;;;;4.00;1.23;;;6.90;84.00;;;;;;9174733;19;20015;-71
2024/01/31 03:32:20;;;;;;;1.27;1.08;;;6.90;83.80;;;;;;9173744;19;20473;-72
2024/01/31 03:35:28;;;;;;;2.50;1.25;;;6.90;83.80;;;;;;9185762;19;20022;-73
2024/01/31 03:38:34;;;;;;;6.93;1.33;;;7.00;83.90;;;;;;9182489;19;20401;-74
2024/01/31 03:41:49;;;;;;;4.97;1.58;;;7.00;84.00;;;;;;9181155;19;20029;-72
2024/01/31 03:44:54;;;;;;;2.90;1.47;;;6.90;83.90;;;;;;9185788;19;20015;-72
2024/01/31 03:48:02;;;;;;;3.78;1.63;;;6.90;83.80;;;;;;9184662;19;20014;-73
2024/01/31 03:51:07;;;;;;;4.78;1.40;;;6.90;83.90;;;;;;9186053;19;20050;-73
2024/01/31 03:54:15;;;;;;;4.78;1.08;;;6.90;83.90;;;;;;9184456;19;20361;-72
2024/01/31 03:57:23;;;;;;;2.28;1.20;;;6.90;83.90;;;;;;9184688;19;20057;-72
2024/01/31 04:00:31;;;;;;;2.42;1.05;;;6.90;84.00;;;;;;9183625;19;20479;-72
2024/01/31 04:03:39;;;;;;;2.08;1.15;;;6.90;83.80;;;;;;9184037;19;20010;-71
2024/01/31 04:06:47;;;;;;;5.10;1.25;;;6.90;83.90;;;;;;9182006;19;20376;-69
2024/01/31 04:09:52;;;;;;;3.67;1.30;;;6.90;83.90;;;;;;9181686;19;20007;-71
2024/01/31 04:13:03;;;;;;;6.15;1.23;;;6.90;84.00;;;;;;9184343;19;20369;-73
2024/01/31 04:16:09;;;;;;;3.75;1.27;;;6.90;83.90;;;;;;9180904;19;20044;-72
2024/01/31 04:19:16;;;;;;;2.25;1.15;;;6.90;83.90;;;;;;9184244;19;20014;-73
2024/01/31 04:22:22;;;;;;;2.13;1.08;;;6.80;83.80;;;;;;9178924;19;20023;-71
2024/01/31 04:25:30;;;;;;;9.43;1.63;;;6.90;83.90;;;;;;9182720;19;20013;-73
2024/01/31 04:28:38;;;;;;;4.38;1.52;;;6.90;84.00;;;;;;9181236;19;20014;-72
2024/01/31 04:31:46;;;;;;;2.88;1.25;;;6.80;84.50;;;;;;9175916;19;20554;-73
2024/01/31 04:34:51;;;;;;;2.35;1.27;;;6.80;84.10;;;;;;9182908;19;20014;-74
2024/01/31 04:37:59;;;;;;;3.65;1.15;;;6.80;84.00;;;;;;9183690;19;20011;-73
2024/01/31 04:41:05;;;;;;;4.57;1.63;;;6.80;83.90;;;;;;9180468;19;20048;-73
2024/01/31 04:44:15;;;;;;;1.75;1.27;;;6.80;83.90;;;;;;9182412;19;20030;-74
2024/01/31 04:47:22;;;;;;;3.42;1.30;;;6.80;84.00;;;;;;9181935;19;20015;-73
2024/01/31 04:50:29;;;;;;;5.22;1.30;;;6.90;84.00;;;;;;9179929;19;20365;-72
2024/01/31 04:53:35;;;;;;;1.20;1.00;;;6.90;84.10;;;;;;9181909;19;20494;-73
2024/01/31 04:56:43;;;;;;;3.00;1.42;;;6.80;83.90;;;;;;9181405;19;20025;-73
2024/01/31 04:59:51;;;;;;;5.68;1.40;;;6.80;83.90;;;;;;9180805;19;20430;-71
2024/01/31 05:03:01;;;;;;;4.00;1.40;;;6.80;83.90;;;;;;9177893;19;20811;-71
2024/01/31 05:06:07;;;;;;;5.78;1.70;;;6.80;84.00;;;;;;9180675;19;20095;-72
2024/01/31 05:09:15;;;;;;;6.50;1.88;;;6.80;83.90;;;;;;9181274;19;20022;-73
2024/01/31 05:12:20;;;;;;;7.95;2.13;;;6.80;84.50;;;;;;9178772;19;20037;-72
2024/01/31 05:15:31;;;;;;;4.80;1.60;;;6.70;83.90;;;;;;9178144;19;20022;-73
2024/01/31 05:18:37;;;;;;;6.32;2.00;;;6.70;83.80;;;;;;9177409;19;20014;-73
2024/01/31 05:21:47;;;;;;;6.35;1.60;;;6.70;83.80;;;;;;9178084;19;20373;-72
2024/01/31 05:24:53;;;;;;;4.90;1.70;;;6.70;83.90;;;;;;9180082;19;20048;-70
2024/01/31 05:28:01;;;;;;;7.78;1.90;;;6.70;83.90;;;;;;9178012;19;20539;-73
2024/01/31 05:31:09;;;;;;;2.85;1.50;;;6.70;84.00;;;;;;9172257;19;20014;-71
2024/01/31 05:34:17;;;;;;;3.15;1.77;;;6.70;84.00;;;;;;9178472;19;20006;-73
2024/01/31 05:37:22;;;;;;;6.75;1.80;;;6.70;84.60;;;;;;9178692;19;20557;-72
2024/01/31 05:40:30;;;;;;;4.10;1.67;;;6.70;83.90;;;;;;9179232;19;20011;-72
2024/01/31 05:43:35;;;;;;;12.93;1.98;;;6.70;83.90;;;;;;9176632;19;20014;-71
2024/01/31 05:46:47;;;;;;;6.93;2.17;;;6.70;83.90;;;;;;9178216;19;20018;-73
2024/01/31 05:49:53;;;;;;;10.63;2.13;;;6.70;83.90;;;;;;9177448;19;20029;-72
2024/01/31 05:53:06;;;;;;;7.00;2.70;;;6.60;83.80;;;;;;9177500;19;20015;-71
2024/01/31 05:56:12;;;;;;;3.13;1.88;;;6.60;83.90;;;;;;9178187;19;20011;-72
2024/01/31 05:59:19;;;;;;;4.47;2.08;;;6.60;83.90;;;;;;9175458;19;20460;-72
2024/01/31 06:02:28;;;;;;;10.65;3.70;;;6.60;83.90;;;;;;9176399;19;20073;-73
2024/01/31 06:05:35;;;;;;;4.68;2.22;;;6.60;83.90;;;;;;9176362;19;20022;-73
2024/01/31 06:08:41;;;;;;;4.57;2.40;;;6.60;83.90;;;;;;9175150;19;20025;-73
2024/01/31 06:11:48;;;;;;;4.78;2.08;;;6.60;84.00;;;;;;9177748;19;20029;-72
2024/01/31 06:14:54;;;;;;;5.80;2.20;;;6.60;83.90;;;;;;9173931;19;20055;-72
2024/01/31 06:18:04;;;;;;;6.25;2.20;;;6.60;84.10;;;;;;9176595;19;20443;-71
2024/01/31 06:21:10;;;;;;;2.53;2.03;;;6.60;84.10;;;;;;9175793;19;21029;-72
2024/01/31 06:24:17;;;;;;;7.75;2.80;;;6.60;84.00;;;;;;9175946;19;20018;-72
2024/01/31 06:27:23;;;;;;;7.10;2.67;;;6.60;84.00;;;;;;9175847;19;20021;-71
2024/01/31 06:30:40;;;;;;;6.07;2.42;;;6.60;84.00;;;;;;9175839;19;20015;-73
2024/01/31 06:33:48;;;;;;;6.03;2.35;;;6.50;84.00;;;;;;9175819;19;20099;-73
2024/01/31 06:36:56;;;;;;;6.40;2.67;;;6.50;84.00;;;;;;9173375;19;20018;-72
2024/01/31 06:40:04;;;;;;;11.75;2.92;;;6.60;84.20;;;;;;9175240;19;20074;-72
2024/01/31 06:43:12;;;;;;;7.53;3.20;;;6.50;84.10;;;;;;9173203;19;20026;-72
2024/01/31 06:46:19;;;;;;;7.43;2.92;;;6.50;84.10;;;;;;9175678;19;20019;-69
2024/01/31 06:49:29;;;;;;;9.48;2.45;;;6.60;84.50;;;;;;9175296;19;20488;-74
2024/01/31 06:52:34;;;;;;;7.22;2.50;;;6.50;84.10;;;;;;9175431;19;20044;-70
2024/01/31 06:55:42;;;;;;;6.15;2.40;;;6.60;84.20;;;;;;9173838;19;20022;-73
2024/01/31 06:58:48;;;;;;;12.85;2.70;;;6.60;84.20;;;;;;9172289;19;20025;-74
2024/01/31 07:01:55;;;;;;;6.82;2.15;;;6.60;84.30;;;;;;9173853;19;20362;-71
2024/01/31 07:05:04;;;;;;;10.02;3.17;;;6.60;84.20;;;;;;9172181;19;20060;-71
2024/01/31 07:08:11;;;;;;;4.15;2.15;;;6.60;84.20;;;;;;9170699;19;20018;-72
2024/01/31 07:11:17;;;;;;;10.73;5.18;;;6.60;84.20;;;;;;9180489;19;21387;-71
2024/01/31 07:14:25;;;;;;;10.32;4.47;;;6.50;84.10;;;;;;9180686;19;20507;-71
2024/01/31 07:17:31;;;;;;;18.20;4.25;;;6.60;84.20;;;;;;9179797;19;20023;-72
2024/01/31 07:20:41;;;;;;;5.40;2.55;;;6.60;84.30;;;;;;9179309;19;20464;-69
2024/01/31 07:23:46;;;;;;;9.20;2.65;;;6.80;84.40;;;;;;9176059;19;20362;-71
2024/01/31 07:26:54;;;;;;;5.10;2.60;;;6.50;84.20;;;;;;9181803;19;20048;-71
2024/01/31 07:29:59;;;;;;;8.10;2.45;;;6.60;84.20;;;;;;9183323;19;20876;-71
2024/01/31 07:33:07;;;;;;;7.93;2.40;;;6.60;84.30;;;;;;9178435;19;20638;-70
2024/01/31 07:36:16;;;;;;;4.88;2.40;;;6.60;84.30;;;;;;9182589;19;20070;-71
2024/01/31 07:39:23;;;;;;;8.90;3.05;;;6.60;84.30;;;;;;9181752;19;20488;-71
2024/01/31 07:42:29;;;;;;;11.52;3.10;;;6.60;84.20;;;;;;9179219;19;20015;-72
2024/01/31 07:45:36;;;;;;;5.55;2.90;;;6.60;84.20;;;;;;9183131;19;20464;-71
2024/01/31 07:48:42;;;;;;;4.85;2.85;;;6.60;84.30;;;;;;9182666;19;20011;-71
2024/01/31 07:51:56;;;;;;;13.07;3.80;;;6.60;84.20;;;;;;9181191;19;20015;-72
2024/01/31 07:55:03;;;;;;;5.97;2.67;;;6.60;84.20;;;;;;9181546;19;20010;-72
2024/01/31 07:58:10;;;;;;;12.75;3.45;;;6.60;84.30;;;;;;9180253;19;20336;-72
2024/01/31 08:01:16;;;;;;;8.70;2.33;;;6.70;84.20;;;;;;9179889;19;20022;-73
2024/01/31 08:04:24;;;;;;;7.10;2.88;;;6.60;84.10;;;;;;9176118;19;20115;-71
2024/01/31 08:07:32;;;;;;;8.65;3.13;;;6.50;84.10;;;;;;9180144;19;20014;-71
2024/01/31 08:10:40;;;;;;;8.02;2.75;;;6.60;84.20;;;;;;9180442;19;20014;-71
2024/01/31 08:13:45;;;;;;;8.18;2.80;;;6.60;84.20;;;;;;9180399;19;20014;-71
2024/01/31 08:16:53;;;;;;;6.63;3.13;;;6.60;84.10;;;;;;9180454;19;20480;-70
2024/01/31 08:19:59;;;;;;;4.80;2.75;;;6.60;84.10;;;;;;9178223;19;20009;-72
2024/01/31 08:23:10;;;;;;;12.73;3.22;;;6.70;84.10;;;;;;9178732;19;20038;-72
2024/01/31 08:26:19;;;;;;;8.23;2.55;;;6.70;84.00;;;;;;9177519;19;20018;-72
2024/01/31 08:29:26;;;;;;;5.20;2.50;;;6.60;84.10;;;;;;9179888;19;20526;-71
2024/01/31 08:32:34;;;;;;;7.18;2.40;;;6.70;84.00;;;;;;9177045;19;20025;-73
2024/01/31 08:35:44;;;;;;;8.50;2.83;;;6.60;83.90;;;;;;9180087;19;20010;-72
2024/01/31 08:38:52;;;;;;;6.15;2.53;;;6.70;84.00;;;;;;9179970;19;20003;-73
2024/01/31 08:41:59;;;;;;;6.72;2.80;;;6.70;83.90;;;;;;9179621;19;20022;-72
2024/01/31 08:45:06;;;;;;;20.83;5.95;;;6.70;84.00;;;;;;9177338;19;20017;-73
2024/01/31 08:48:13;;;;;;;14.98;4.60;;;6.70;83.90;;;;;;9177696;19;20026;-72
2024/01/31 08:51:19;;;;;;;9.70;3.28;;;6.70;83.90;;;;;;9178052;19;20388;-74
2024/01/31 08:54:30;;;;;;;8.93;2.40;;;6.70;84.00;;;;;;9177556;19;20022;-72
2024/01/31 08:57:36;;;;;;;7.20;2.50;;;6.80;84.00;;;;;;9173476;19;20448;-71
2024/01/31 09:00:44;;;;;;;7.80;2.70;;;6.70;84.00;;;;;;9178137;19;20025;-71
2024/01/31 09:03:53;;;;;;;6.18;2.47;;;6.70;84.00;;;;;;9177178;19;20026;-74
2024/01/31 09:07:01;;;;;;;5.03;2.30;;;6.80;84.00;;;;;;9175593;19;20500;-72
2024/01/31 09:10:10;;;;;;;8.93;2.63;;;6.80;84.10;;;;;;9178649;19;20894;-71
2024/01/31 09:13:18;;;;;;;3.40;2.30;;;6.80;84.00;;;;;;9177000;19;20026;-70
2024/01/31 09:16:23;;;;;;;7.68;2.80;;;6.80;84.00;;;;;;9177532;19;20464;-71
2024/01/31 09:19:31;;;;;;;4.20;2.03;;;6.80;84.00;;;;;;9174969;19;20127;-72
2024/01/31 09:22:38;;;;;;;5.80;2.33;;;6.80;84.00;;;;;;9175913;19;20018;-73
2024/01/31 09:25:49;;;;;;;8.57;3.35;;;6.90;84.10;;;;;;9172713;19;20011;-74
2024/01/31 09:28:54;;;;;;;8.63;2.65;;;6.90;84.10;;;;;;9174936;19;20022;-72
2024/01/31 09:32:02;;;;;;;6.68;2.55;;;6.90;84.10;;;;;;9171403;19;20022;-71
2024/01/31 09:35:09;;;;;;;2.92;2.15;;;6.90;84.00;;;;;;9174522;19;20014;-71
2024/01/31 09:38:17;;;;;;;7.35;2.58;;;6.90;83.90;;;;;;9171904;19;20475;-71
2024/01/31 09:41:26;;;;;;;8.50;2.80;;;7.00;84.00;;;;;;9175036;19;20364;-71
2024/01/31 09:44:34;;;;;;;10.10;3.08;;;7.00;84.00;;;;;;9174120;19;20510;-72
2024/01/31 09:47:42;;;;;;;10.45;2.88;;;7.00;84.00;;;;;;9177446;19;20482;-73
2024/01/31 09:50:50;;;;;;;8.05;3.78;;;7.00;84.00;;;;;;9178751;19;20472;-74
2024/01/31 09:54:00;;;;;;;5.30;2.38;;;7.00;84.00;;;;;;9177034;19;20018;-75
2024/01/31 09:57:11;;;;;;;3.78;2.25;;;7.10;83.90;;;;;;9178006;19;20050;-74
2024/01/31 10:00:17;;;;;;;5.60;2.90;;;7.20;84.10;;;;;;9179619;19;20357;-76
2024/01/31 10:03:25;;;;;;;10.93;2.90;;;7.10;83.90;;;;;;9176154;19;20011;-76
2024/01/31 10:06:31;;;;;;;15.30;4.25;;;7.10;84.00;;;;;;9174852;19;20042;-73
2024/01/31 10:09:38;;;;;;;9.82;3.25;;;7.10;84.00;;;;;;9174123;19;20013;-73
2024/01/31 10:12:46;;;;;;;8.63;3.13;;;7.10;83.90;;;;;;9175381;19;20365;-74
2024/01/31 10:15:54;;;;;;;11.00;3.72;;;7.30;84.10;;;;;;9175618;19;20015;-75
2024/01/31 10:19:00;;;;;;;7.05;3.80;;;7.20;84.10;;;;;;9171787;19;20056;-71
2024/01/31 10:22:08;;;;;;;6.78;3.80;;;7.20;83.90;;;;;;9170718;19;20010;-75
2024/01/31 10:25:16;;;;;;;6.03;3.42;;;7.30;83.80;;;;;;9175199;19;20659;-76
2024/01/31 10:28:27;;;;;;;8.05;3.53;;;7.30;83.80;;;;;;9176624;19;20018;-76
2024/01/31 10:31:34;;;;;;;13.18;5.25;;;7.40;83.90;;;;;;9172938;19;20025;-75
2024/01/31 10:34:43;;;;;;;7.68;3.92;;;7.40;83.90;;;;;;9175824;19;20021;-71
2024/01/31 10:38:09;;;;;;;8.55;4.18;;;7.40;83.80;;;;;;9174739;19;20026;-74
2024/01/31 10:41:19;;;;;;;12.80;4.15;;;7.40;83.90;;;;;;9172409;19;20019;-74
2024/01/31 10:44:27;;;;;;;9.90;5.30;;;7.50;83.80;;;;;;9177195;19;20018;-75
2024/01/31 10:47:35;;;;;;;8.52;4.68;;;7.50;83.80;;;;;;9183398;19;20018;-73
2024/01/31 10:50:42;;;;;;;7.68;4.25;;;7.50;83.70;;;;;;9180629;19;20029;-76
2024/01/31 10:53:51;;;;;;;6.20;4.07;;;7.60;83.80;;;;;;9184225;19;20019;-77
2024/01/31 10:56:58;;;;;;;11.32;5.53;;;7.60;83.80;;;;;;9184517;19;20011;-75
2024/01/31 11:00:11;;;;;;;8.48;4.40;;;7.60;83.70;;;;;;9183265;19;20467;-74
2024/01/31 11:03:18;;;;;;;6.63;3.90;;;7.60;83.60;;;;;;9182950;19;20519;-74
2024/01/31 11:06:26;;;;;;;7.85;4.22;;;7.60;83.60;;;;;;9142829;19;20922;-71
2024/01/31 11:09:32;;;;;;;6.57;4.07;;;7.60;83.60;;;;;;9147219;19;20010;-72
2024/01/31 11:12:39;;;;;;;7.95;4.95;;;7.70;83.80;;;;;;9177888;19;20014;-70
2024/01/31 11:15:47;;;;;;;7.18;4.68;;;7.70;83.80;;;;;;9181699;19;20015;-74
2024/01/31 11:18:55;;;;;;;6.53;4.32;;;7.80;83.90;;;;;;9181223;19;20018;-74
2024/01/31 11:22:02;;;;;;;9.02;4.50;;;7.80;83.70;;;;;;9179153;19;20030;-76
2024/01/31 11:25:11;;;;;;;10.57;4.40;;;7.80;83.80;;;;;;9177853;19;20025;-73
2024/01/31 11:28:18;;;;;;;4.72;3.70;;;7.90;83.70;;;;;;9181823;19;20014;-74
2024/01/31 11:31:29;;;;;;;15.57;5.15;;;7.90;83.70;;;;;;9175444;19;20650;-75
2024/01/31 11:34:34;;;;;;;7.30;4.35;;;7.90;83.60;;;;;;9180861;19;20051;-70
2024/01/31 11:37:42;;;;;;;12.27;4.28;;;8.00;83.70;;;;;;9179671;19;20010;-75
2024/01/31 11:40:48;;;;;;;9.55;4.20;;;8.00;83.80;;;;;;9183371;19;20518;-74
2024/01/31 11:43:56;;;;;;;5.85;3.92;;;8.00;83.70;;;;;;9194906;19;20015;-74
2024/01/31 11:47:04;;;;;;;8.18;4.35;;;8.10;83.70;;;;;;9190564;19;20021;-74
2024/01/31 11:50:12;;;;;;;9.80;4.15;;;8.10;83.70;;;;;;9189816;19;20011;-73
2024/01/31 11:53:18;;;;;;;9.90;4.40;;;8.10;83.70;;;;;;9193704;19;20015;-73
2024/01/31 11:56:26;;;;;;;9.13;5.60;;;8.20;83.60;;;;;;9194774;19;20026;-74
2024/01/31 11:59:32;;;;;;;6.78;4.15;;;8.20;83.60;;;;;;9192789;19;20050;-76
2024/01/31 12:02:42;;;;;;;8.93;4.47;;;8.20;83.60;;;;;;9190518;19;20007;-69
2024/01/31 12:05:57;;;;;;;10.80;4.68;;;8.20;84.20;;;;;;9191225;19;20014;-74
2024/01/31 12:09:06;;;;;;;6.68;4.20;;;8.30;83.50;;;;;;9192176;19;20010;-71
2024/01/31 12:12:12;;;;;;;9.32;4.70;;;8.40;84.40;;;;;;9192229;19;20060;-73
2024/01/31 12:15:19;;;;;;;7.30;4.75;;;8.40;83.70;;;;;;9190441;19;20490;-74
2024/01/31 12:18:28;;;;;;;7.75;4.63;;;8.40;83.60;;;;;;9192313;19;20017;-74
2024/01/31 12:21:43;;;;;;;8.45;4.45;;;8.50;83.70;;;;;;9194020;19;20013;-70
2024/01/31 12:24:49;;;;;;;;;;;8.70;83.60;;;;;;9192084;19;20010;-74
2024/01/31 12:27:57;;;;;;;7.05;4.50;;;8.50;83.50;;;;;;9191716;19;20269;-74
2024/01/31 12:31:03;;;;;;;11.98;5.40;;;8.60;83.50;;;;;;9188957;19;20011;-71
2024/01/31 12:34:13;;;;;;;9.65;4.53;;;8.60;83.50;;;;;;9190706;19;20010;-72
2024/01/31 12:37:18;;;;;;;7.28;4.35;;;8.60;83.60;;;;;;9189294;19;20843;-70
2024/01/31 12:40:26;;;;;;;11.65;5.07;;;8.60;83.30;;;;;;9187759;19;20022;-73
2024/01/31 12:43:32;;;;;;;12.07;4.90;;;8.80;83.40;;;;;;9189462;19;20022;-73
2024/01/31 12:46:41;;;;;;;10.38;4.10;;;8.70;83.40;;;;;;9189522;19;20370;-72
2024/01/31 12:49:49;;;;;;;14.73;5.05;;;8.70;83.40;;;;;;9192423;19;20021;-74
2024/01/31 12:52:57;;;;;;;10.23;5.22;;;8.70;83.20;;;;;;9193200;19;20026;-73
2024/01/31 12:56:02;;;;;;;9.35;4.75;;;8.90;83.30;;;;;;9189747;19;20006;-71
2024/01/31 12:59:10;;;;;;;10.70;5.35;;;8.90;83.60;;;;;;9191596;19;20014;-72
2024/01/31 13:02:15;;;;;;;11.98;5.38;;;8.70;83.30;;;;;;9189686;19;20674;-72
2024/01/31 13:05:26;;;;;;;11.30;5.43;;;8.80;83.20;;;;;;9185235;19;20014;-74
2024/01/31 13:08:35;;;;;;;12.07;6.28;;;8.80;83.10;;;;;;9187626;19;20026;-74
2024/01/31 13:11:43;;;;;;;13.02;6.07;;;8.80;83.10;;;;;;9190043;19;20018;-71
2024/01/31 13:14:49;;;;;;;12.15;5.70;;;8.80;83.00;;;;;;9187245;19;20094;-72
2024/01/31 13:17:56;;;;;;;17.33;5.80;;;8.90;83.30;;;;;;9185804;19;20006;-72
2024/01/31 13:21:05;;;;;;;14.63;6.10;;;8.80;83.20;;;;;;9184632;19;20102;-72
2024/01/31 13:24:13;;;;;;;11.25;5.72;;;8.80;83.10;;;;;;9186536;19;20475;-72
2024/01/31 13:27:18;;;;;;;15.93;6.82;;;8.80;83.20;;;;;;9186978;19;20035;-72
2024/01/31 13:30:26;;;;;;;18.20;7.68;;;8.80;83.30;;;;;;9188040;19;20011;-73
2024/01/31 13:33:31;;;;;;;16.23;6.40;;;8.80;83.00;;;;;;9181888;19;20043;-71
2024/01/31 13:36:42;;;;;;;11.63;6.18;;;8.80;83.10;;;;;;9187947;19;20022;-73
2024/01/31 13:39:48;;;;;;;12.57;6.35;;;8.70;83.10;;;;;;9186415;19;20007;-72
2024/01/31 13:42:56;;;;;;;14.50;6.85;;;8.70;82.90;;;;;;9187374;19;20018;-72
2024/01/31 13:46:01;;;;;;;11.27;5.82;;;8.70;83.40;;;;;;9186103;19;20025;-72
2024/01/31 13:49:11;;;;;;;13.65;6.85;;;8.70;83.00;;;;;;9190355;19;20018;-72
2024/01/31 13:52:19;;;;;;;12.57;6.28;;;8.70;82.90;;;;;;9191834;19;20420;-73
2024/01/31 13:55:27;;;;;;;13.20;5.93;;;8.70;82.70;;;;;;9190319;19;20021;-68
2024/01/31 13:58:32;;;;;;;15.13;7.15;;;8.60;82.80;;;;;;9187854;19;20047;-73
2024/01/31 14:01:40;;;;;;;15.32;7.45;;;8.70;82.80;;;;;;9192253;19;20668;-72
2024/01/31 14:04:45;;;;;;;17.23;7.57;;;8.60;82.70;;;;;;9190154;19;20461;-73
2024/01/31 14:07:56;;;;;;;14.82;8.05;;;8.60;82.80;;;;;;9189019;19;20026;-73
2024/01/31 14:11:02;;;;;;;16.25;7.90;;;8.50;82.60;;;;;;9192658;19;20024;-70
2024/01/31 14:14:09;;;;;;;15.20;8.35;;;8.50;82.60;;;;;;9190646;19;20018;-74
2024/01/31 14:17:15;;;;;;;15.50;7.65;;;8.50;82.50;;;;;;9186712;19;20022;-74
2024/01/31 14:20:22;;;;;;;14.38;7.55;;;8.60;82.70;;;;;;9190555;19;20010;-68
2024/01/31 14:23:31;;;;;;;13.77;8.18;;;8.70;82.60;;;;;;9177373;19;20015;-72
2024/01/31 14:26:50;;;;;;;15.02;8.55;;;8.50;82.50;;;;;;9173119;19;20014;-73
2024/01/31 14:29:56;;;;;;;16.70;8.77;;;8.50;82.40;;;;;;9180080;19;20130;-73
2024/01/31 14:33:03;;;;;;;19.58;9.45;;;8.50;82.30;;;;;;9185746;19;20468;-71
2024/01/31 14:36:10;;;;;;;18.23;9.98;;;8.50;82.30;;;;;;9177471;19;20096;-70
2024/01/31 14:39:22;;;;;;;17.42;9.35;;;8.50;82.20;;;;;;9182960;19;20050;-70
2024/01/31 14:42:27;;;;;;;20.35;10.65;;;8.50;82.30;;;;;;9182417;19;20018;-72
2024/01/31 14:45:35;;;;;;;18.92;10.10;;;8.50;82.20;;;;;;9185019;19;20503;-71
2024/01/31 14:48:40;;;;;;;18.80;10.13;;;8.50;82.30;;;;;;9178357;19;20014;-71
2024/01/31 14:51:48;;;;;;;22.48;11.82;;;8.50;82.30;;;;;;9184287;19;20006;-73
2024/01/31 14:54:56;;;;;;;19.35;10.82;;;8.60;82.40;;;;;;9178609;19;20015;-72
2024/01/31 14:58:05;;;;;;;21.70;11.25;;;8.50;82.10;;;;;;9186546;19;20495;-72
2024/01/31 15:01:10;;;;;;;20.40;11.48;;;8.30;82.00;;;;;;9187223;19;20031;-69
2024/01/31 15:04:18;;;;;;;18.88;10.77;;;8.40;82.00;;;;;;9187024;19;20015;-73
2024/01/31 15:07:24;;;;;;;19.73;10.65;;;8.40;82.10;;;;;;9187513;19;20120;-72
2024/01/31 15:10:38;;;;;;;18.50;10.93;;;8.50;82.10;;;;;;9187004;19;20014;-71
2024/01/31 15:13:43;;;;;;;23.95;11.70;;;8.40;81.90;;;;;;9189088;19;20019;-70
2024/01/31 15:16:51;;;;;;;19.65;11.85;;;8.30;82.00;;;;;;9186747;19;20567;-73
2024/01/31 15:19:56;;;;;;;18.83;10.50;;;8.30;81.90;;;;;;9182685;19;20014;-74
2024/01/31 15:23:05;;;;;;;19.25;10.60;;;8.30;82.50;;;;;;9185365;19;20015;-73
2024/01/31 15:26:13;;;;;;;18.27;10.48;;;8.30;82.00;;;;;;9187530;19;20026;-72
2024/01/31 15:29:21;;;;;;;18.67;10.25;;;8.30;81.80;;;;;;9191750;19;20015;-69
2024/01/31 15:32:26;;;;;;;16.02;9.73;;;8.30;81.80;;;;;;9194213;19;20476;-73
2024/01/31 15:35:34;;;;;;;16.55;8.57;;;8.30;81.80;;;;;;9189649;19;20006;-73
2024/01/31 15:38:48;;;;;;;16.00;9.15;;;8.20;81.60;;;;;;9195376;19;20021;-72
2024/01/31 15:41:58;;;;;;;16.38;9.02;;;8.30;81.60;;;;;;9197604;19;20013;-73
2024/01/31 15:45:04;;;;;;;15.75;9.18;;;8.20;81.60;;;;;;9201276;19;20032;-73
2024/01/31 15:48:12;;;;;;;16.67;10.07;;;8.20;81.80;;;;;;9197989;19;20033;-72
2024/01/31 15:51:19;;;;;;;18.88;8.93;;;8.20;81.70;;;;;;9194185;19;20054;-73
2024/01/31 15:54:27;;;;;;;17.25;8.80;;;8.20;81.60;;;;;;9196303;19;20661;-71
2024/01/31 15:57:40;;;;;;;15.40;8.73;;;8.20;81.50;;;;;;9192386;19;20017;-73
2024/01/31 16:00:48;;;;;;;15.40;9.05;;;8.20;81.60;;;;;;9198110;19;20021;-71
2024/01/31 16:03:53;;;;;;;15.15;8.52;;;8.20;81.50;;;;;;9197631;19;20019;-69
2024/01/31 16:07:02;;;;;;;12.48;7.75;;;8.20;81.40;;;;;;9193864;19;20022;-72
2024/01/31 16:10:09;;;;;;;13.25;7.38;;;8.10;81.40;;;;;;9198207;19;20017;-71
2024/01/31 16:13:19;;;;;;;17.75;7.75;;;8.10;81.30;;;;;;9197384;19;20014;-72
2024/01/31 16:16:25;;;;;;;16.77;7.00;;;8.10;81.20;;;;;;9195405;19;20364;-70
2024/01/31 16:19:32;;;;;;;12.23;6.13;;;8.10;81.30;;;;;;9194368;19;20014;-70
2024/01/31 16:22:39;;;;;;;10.65;5.82;;;8.00;81.10;;;;;;9181273;19;20145;-71
2024/01/31 16:25:46;;;;;;;10.85;5.38;;;8.10;81.30;;;;;;9188518;19;20021;-72